createdAt,value
2023-05-06T00:00:46.172Z,1.40
2023-05-06T00:04:48.312Z,1.25
2023-05-06T00:08:50.592Z,1.10
2023-05-06T00:12:52.671Z,1.10
2023-05-06T00:16:54.713Z,1.00
2023-05-06T00:20:56.709Z,1.00
2023-05-06T00:24:58.691Z,1.30
2023-05-06T00:29:00.688Z,1.00
2023-05-06T00:33:02.939Z,1.00
2023-05-06T00:37:05.085Z,1.25
2023-05-06T00:41:08.074Z,1.52
2023-05-06T00:45:10.785Z,1.10
2023-05-06T00:49:13.367Z,1.20
2023-05-06T00:53:18.965Z,1.10
2023-05-06T00:57:21.206Z,1.13
2023-05-06T01:01:23.883Z,1.00
2023-05-06T01:05:32.268Z,1.25
2023-05-06T01:09:56.826Z,1.40
2023-05-06T01:14:12.546Z,1.15
2023-05-06T01:18:17.672Z,1.38
2023-05-06T01:22:20.095Z,1.25
2023-05-06T01:26:22.603Z,1.30
2023-05-06T01:30:30.920Z,1.25
2023-05-06T01:34:49.732Z,1.17
2023-05-06T01:38:58.806Z,1.45
2023-05-06T01:43:04.052Z,1.20
2023-05-06T01:47:08.763Z,1.30
2023-05-06T01:51:10.758Z,1.50
2023-05-06T01:55:12.868Z,1.33
2023-05-06T01:59:14.965Z,1.40
2023-05-06T02:03:17.068Z,1.25
2023-05-06T02:07:19.317Z,1.30
2023-05-06T02:11:21.556Z,1.30
2023-05-06T02:15:25.743Z,1.55
2023-05-06T02:19:27.744Z,1.40
2023-05-06T02:23:30.018Z,1.50
2023-05-06T02:27:32.036Z,1.60
2023-05-06T02:31:34.098Z,1.52
2023-05-06T02:35:36.139Z,1.45
2023-05-06T02:39:38.185Z,1.52
2023-05-06T02:43:41.145Z,1.33
2023-05-06T02:47:43.160Z,1.70
2023-05-06T02:51:45.818Z,1.45
2023-05-06T02:55:47.820Z,1.45
2023-05-06T02:59:49.847Z,1.40
2023-05-06T03:03:51.945Z,1.55
2023-05-06T03:07:54.016Z,1.50
2023-05-06T03:11:57.109Z,1.67
2023-05-06T03:15:59.298Z,1.83
2023-05-06T03:20:01.928Z,1.65
2023-05-06T03:24:05.895Z,1.35
2023-05-06T03:28:08.055Z,1.60
2023-05-06T03:32:12.070Z,1.48
2023-05-06T03:36:17.718Z,1.75
2023-05-06T03:40:22.389Z,1.60
2023-05-06T03:44:25.425Z,1.83
2023-05-06T03:48:27.709Z,1.50
2023-05-06T03:52:31.014Z,1.50
2023-05-06T03:56:34.261Z,1.50
2023-05-06T04:00:36.810Z,1.52
2023-05-06T04:04:38.946Z,1.27
2023-05-06T04:08:41.074Z,1.33
2023-05-06T04:12:43.136Z,1.30
2023-05-06T04:16:46.135Z,1.20
2023-05-06T04:20:48.496Z,1.30
2023-05-06T04:24:50.618Z,1.13
2023-05-06T04:28:52.760Z,1.60
2023-05-06T04:32:55.697Z,1.30
2023-05-06T04:36:58.262Z,1.30
2023-05-06T04:41:09.669Z,1.10
2023-05-06T04:45:11.968Z,1.10
2023-05-06T04:49:16.475Z,1.20
2023-05-06T04:53:19.455Z,1.23
2023-05-06T04:57:21.921Z,0.85
2023-05-06T05:01:24.140Z,1.10
2023-05-06T05:05:27.340Z,1.20
2023-05-06T05:09:29.696Z,1.23
2023-05-06T05:13:32.470Z,1.20
2023-05-06T05:17:34.615Z,0.82
2023-05-06T05:21:37.466Z,0.90
2023-05-06T05:25:40.698Z,0.80
2023-05-06T05:29:42.968Z,1.30
2023-05-06T05:33:45.999Z,1.00
2023-05-06T05:37:51.295Z,0.90
2023-05-06T05:41:53.757Z,1.13
2023-05-06T05:45:56.140Z,0.82
2023-05-06T05:49:58.225Z,0.98
2023-05-06T05:54:00.572Z,1.08
2023-05-06T05:58:03.438Z,0.80
2023-05-06T06:02:07.062Z,0.80
2023-05-06T06:06:09.561Z,0.88
2023-05-06T06:10:13.927Z,0.80
2023-05-06T06:14:16.185Z,0.90
2023-05-06T06:18:18.974Z,0.90
2023-05-06T06:22:21.179Z,1.30
2023-05-06T06:26:23.989Z,0.95
2023-05-06T06:30:26.006Z,0.90
2023-05-06T06:34:28.022Z,0.63
2023-05-06T06:38:30.185Z,0.65
2023-05-06T06:46:43.077Z,0.70
2023-05-06T06:50:45.183Z,0.88
2023-05-06T06:54:47.165Z,0.82
2023-05-06T06:58:50.304Z,0.70
2023-05-06T07:02:54.007Z,0.70
2023-05-06T07:06:56.611Z,1.00
2023-05-06T07:10:58.663Z,1.00
2023-05-06T07:15:00.733Z,1.30
2023-05-06T07:19:02.984Z,1.50
2023-05-06T07:23:05.278Z,1.10
2023-05-06T07:27:07.286Z,1.00
2023-05-06T07:31:09.391Z,1.10
2023-05-06T07:35:11.710Z,1.20
2023-05-06T07:39:14.149Z,1.30
2023-05-06T07:43:16.196Z,1.20
2023-05-06T07:47:29.092Z,1.40
2023-05-06T07:51:31.365Z,1.00
2023-05-06T07:55:35.085Z,1.50
2023-05-06T07:59:37.308Z,1.00
2023-05-06T08:03:39.456Z,1.20
2023-05-06T08:07:42.232Z,0.80
2023-05-06T08:11:44.253Z,1.10
2023-05-06T08:15:46.297Z,1.20
2023-05-06T08:19:48.359Z,1.00
2023-05-06T08:23:50.345Z,1.00
2023-05-06T08:27:52.357Z,0.95
2023-05-06T08:31:54.476Z,0.70
2023-05-06T08:35:58.727Z,1.10
2023-05-06T08:40:01.404Z,0.93
2023-05-06T08:44:05.075Z,1.05
2023-05-06T08:48:07.246Z,1.20
2023-05-06T08:52:09.310Z,1.10
2023-05-06T08:56:13.490Z,1.33
2023-05-06T09:00:15.757Z,1.35
2023-05-06T09:04:18.340Z,1.20
2023-05-06T09:08:20.366Z,0.90
2023-05-06T09:12:24.379Z,1.25
2023-05-06T09:16:28.784Z,1.52
2023-05-06T09:20:33.956Z,1.65
2023-05-06T09:24:37.234Z,1.58
2023-05-06T09:28:39.470Z,1.50
2023-05-06T09:32:41.919Z,1.40
2023-05-06T09:36:44.351Z,1.45
2023-05-06T09:40:46.386Z,1.55
2023-05-06T09:44:48.407Z,1.70
2023-05-06T09:48:52.007Z,1.23
2023-05-06T09:52:55.577Z,1.60
2023-05-06T09:56:59.802Z,1.52
2023-05-06T10:01:04.634Z,1.60
2023-05-06T10:05:09.715Z,1.67
2023-05-06T10:09:12.555Z,1.55
2023-05-06T10:13:16.076Z,1.25
2023-05-06T10:17:18.922Z,1.45
2023-05-06T10:21:27.613Z,1.10
2023-05-06T10:25:38.680Z,1.05
2023-05-06T10:29:42.191Z,1.20
2023-05-06T10:33:51.224Z,0.90
2023-05-06T10:37:54.607Z,1.25
2023-05-06T10:41:56.751Z,1.40
2023-05-06T10:46:12.411Z,1.40
2023-05-06T10:50:23.042Z,1.00
2023-05-06T10:54:25.277Z,1.20
2023-05-06T10:58:27.326Z,1.10
2023-05-06T11:02:30.927Z,1.20
2023-05-06T11:06:34.024Z,1.13
2023-05-06T11:10:36.402Z,0.85
2023-05-06T11:14:39.502Z,1.60
2023-05-06T11:18:42.734Z,1.40
2023-05-06T11:22:44.828Z,1.48
2023-05-06T11:26:47.595Z,1.23
2023-05-06T11:30:54.880Z,1.00
2023-05-06T11:34:57.034Z,1.10
2023-05-06T11:39:05.822Z,0.95
2023-05-06T11:43:11.524Z,1.10
2023-05-06T11:47:13.589Z,1.00
2023-05-06T11:51:16.218Z,0.77
2023-05-06T11:55:18.332Z,0.75
2023-05-06T11:59:33.493Z,0.90
2023-05-06T12:03:35.974Z,1.20
2023-05-06T12:07:38.512Z,0.95
2023-05-06T12:11:43.207Z,0.90
2023-05-06T12:15:49.705Z,0.80
2023-05-06T12:19:52.018Z,0.90
2023-05-06T12:23:56.325Z,0.80
2023-05-06T12:27:58.440Z,0.82
2023-05-06T12:32:10.891Z,0.70
2023-05-06T12:36:13.065Z,0.80
2023-05-06T12:40:18.254Z,0.90
2023-05-06T12:44:40.298Z,0.50
2023-05-06T12:49:02.035Z,0.73
2023-05-06T12:53:05.582Z,0.70
2023-05-06T12:57:07.717Z,0.65
2023-05-06T13:01:09.769Z,0.63
2023-05-06T13:05:11.906Z,0.68
2023-05-06T13:09:15.397Z,0.70
2023-05-06T13:13:17.559Z,0.70
2023-05-06T13:17:19.672Z,0.60
2023-05-06T13:21:22.002Z,0.98
2023-05-06T13:25:24.050Z,0.65
2023-05-06T13:29:26.541Z,0.55
2023-05-06T13:33:28.592Z,0.55
2023-05-06T13:37:30.752Z,0.60
2023-05-06T13:41:32.803Z,0.60
2023-05-06T13:45:34.812Z,0.60
2023-05-06T13:49:37.019Z,0.75
2023-05-06T13:53:39.450Z,0.60
2023-05-06T13:57:41.467Z,0.77
2023-05-06T14:01:43.524Z,0.90
2023-05-06T14:05:46.101Z,0.77
2023-05-06T14:09:48.090Z,0.70
2023-05-06T14:13:50.107Z,0.50
2023-05-06T14:17:52.198Z,0.73
2023-05-06T14:21:55.649Z,0.60
2023-05-06T14:25:57.687Z,0.63
2023-05-06T14:29:59.721Z,0.47
2023-05-06T14:34:02.157Z,0.50
2023-05-06T14:38:04.172Z,0.70
2023-05-06T14:42:06.223Z,0.55
2023-05-06T14:46:08.268Z,0.50
2023-05-06T14:50:10.952Z,0.40
2023-05-06T14:54:12.952Z,0.70
2023-05-06T14:58:14.968Z,0.40
2023-05-06T15:02:17.420Z,0.50
2023-05-06T15:06:19.879Z,0.60
2023-05-06T15:10:21.920Z,0.60
2023-05-06T15:14:23.928Z,0.60
2023-05-06T15:18:26.000Z,0.47
2023-05-06T15:22:28.005Z,0.43
2023-05-06T15:26:30.148Z,0.40
2023-05-06T15:30:32.181Z,0.47
2023-05-06T15:34:34.224Z,0.60
2023-05-06T15:38:51.542Z,0.60
2023-05-06T15:42:53.591Z,0.50
2023-05-06T15:46:55.588Z,0.70
2023-05-06T15:50:57.603Z,0.40
2023-05-06T15:55:01.500Z,0.60
2023-05-06T15:59:03.542Z,0.38
2023-05-06T16:03:08.053Z,1.42
2023-05-06T16:07:11.957Z,0.80
2023-05-06T16:11:13.981Z,0.80
2023-05-06T16:15:16.027Z,1.05
2023-05-06T16:19:18.509Z,0.65
2023-05-06T16:23:21.409Z,0.57
2023-05-06T16:27:23.401Z,0.60
2023-05-06T16:31:25.686Z,0.55
2023-05-06T16:35:28.554Z,0.80
2023-05-06T16:39:30.561Z,1.00
2023-05-06T16:43:32.537Z,0.52
2023-05-06T16:47:35.335Z,0.90
2023-05-06T16:51:38.277Z,0.88
2023-05-06T16:55:40.274Z,1.00
2023-05-06T16:59:42.301Z,0.90
2023-05-06T17:03:45.478Z,0.98
2023-05-06T17:07:48.395Z,0.70
2023-05-06T17:11:50.513Z,0.63
2023-05-06T17:15:52.484Z,0.80
2023-05-06T17:19:57.172Z,1.00
2023-05-06T17:23:59.282Z,2.90
2023-05-06T17:28:01.252Z,2.13
2023-05-06T17:32:03.319Z,1.70
2023-05-06T17:36:05.645Z,2.50
2023-05-06T17:40:08.335Z,2.72
2023-05-06T17:44:10.413Z,2.50
2023-05-06T17:48:12.435Z,1.70
2023-05-06T17:52:14.767Z,1.00
2023-05-06T17:56:17.063Z,1.67
2023-05-06T18:00:19.335Z,1.40
2023-05-06T18:04:21.374Z,1.40
2023-05-06T18:08:23.512Z,2.20
2023-05-06T18:12:25.553Z,3.53
2023-05-06T18:16:27.671Z,0.90
2023-05-06T18:20:29.824Z,0.73
2023-05-06T18:24:31.852Z,1.20
2023-05-06T18:28:37.065Z,0.50
2023-05-06T18:32:39.148Z,0.70
2023-05-06T18:36:41.256Z,0.50
2023-05-06T18:40:46.903Z,0.50
2023-05-06T18:44:51.646Z,0.60
2023-05-06T18:48:53.747Z,0.60
2023-05-06T18:52:55.870Z,0.85
2023-05-06T18:56:58.574Z,0.50
2023-05-06T19:01:00.887Z,0.70
2023-05-06T19:05:03.323Z,0.73
2023-05-06T19:09:07.109Z,0.60
2023-05-06T19:13:09.227Z,0.57
2023-05-06T19:17:11.525Z,0.77
2023-05-06T19:21:15.146Z,0.73
2023-05-06T19:25:17.272Z,0.85
2023-05-06T19:29:19.263Z,0.70
2023-05-06T19:33:21.320Z,0.82
2023-05-06T19:37:23.355Z,1.00
2023-05-06T19:41:25.642Z,0.80
2023-05-06T19:45:27.637Z,0.70
2023-05-06T19:49:32.077Z,0.85
2023-05-06T19:53:35.758Z,0.90
2023-05-06T19:57:38.023Z,0.90
2023-05-06T20:01:40.088Z,0.93
2023-05-06T20:05:42.234Z,0.80
2023-05-06T20:09:44.494Z,0.80
2023-05-06T20:13:46.564Z,1.00
2023-05-06T20:17:48.589Z,1.00
2023-05-06T20:21:50.909Z,0.90
2023-05-06T20:25:53.091Z,0.93
2023-05-06T20:29:55.135Z,1.00
2023-05-06T20:33:57.138Z,0.85
2023-05-06T20:37:59.170Z,1.10
2023-05-06T20:42:01.743Z,1.00
2023-05-06T20:46:03.814Z,0.93
2023-05-06T20:50:06.084Z,1.10
2023-05-06T20:54:08.141Z,0.90
2023-05-06T20:58:10.185Z,0.93
2023-05-06T21:02:12.318Z,0.80
2023-05-06T21:06:18.292Z,0.88
2023-05-06T21:10:20.554Z,0.90
2023-05-06T21:14:24.765Z,1.15
2023-05-06T21:18:26.975Z,0.70
2023-05-06T21:22:29.116Z,1.00
2023-05-06T21:26:32.491Z,0.80
2023-05-06T21:30:35.592Z,1.20
2023-05-06T21:34:37.687Z,1.10
2023-05-06T21:38:40.242Z,1.10
2023-05-06T21:42:42.249Z,1.00
2023-05-06T21:46:44.257Z,0.82
2023-05-06T21:50:46.390Z,1.00
2023-05-06T21:54:48.401Z,0.82
2023-05-06T21:58:51.326Z,1.00
2023-05-06T22:02:53.750Z,0.85
2023-05-06T22:06:56.854Z,0.90
2023-05-06T22:10:58.930Z,1.10
2023-05-06T22:15:00.990Z,0.90
2023-05-06T22:19:03.960Z,1.25
2023-05-06T22:23:07.455Z,1.00
2023-05-06T22:27:09.453Z,1.10
2023-05-06T22:31:11.504Z,1.40
2023-05-06T22:35:13.687Z,1.08
2023-05-06T22:39:15.709Z,0.90
2023-05-06T22:43:17.724Z,1.05
2023-05-06T22:47:20.061Z,0.95
2023-05-06T22:51:22.106Z,0.85
2023-05-06T22:55:24.099Z,0.95
2023-05-06T22:59:26.148Z,1.05
2023-05-06T23:03:28.257Z,1.00
2023-05-06T23:07:30.337Z,1.00
2023-05-06T23:11:32.401Z,0.93
2023-05-06T23:15:34.439Z,1.00
2023-05-06T23:19:36.420Z,1.10
2023-05-06T23:23:38.544Z,1.00
2023-05-06T23:27:41.092Z,1.10
2023-05-06T23:31:43.083Z,1.13
2023-05-06T23:35:45.085Z,1.30
2023-05-06T23:39:47.621Z,1.27
2023-05-06T23:43:49.627Z,1.35
2023-05-06T23:47:52.270Z,1.40
2023-05-06T23:51:54.287Z,1.33
2023-05-06T23:55:56.337Z,1.40
2023-05-06T23:59:58.323Z,1.30
